Rapid City, Michigan
Current Conditions -  °F | °C
As of 9:38 AM on Friday 28 Nov 2014 (Local Time) from KACB Reporting Station
Broken Clouds Broken Clouds  
Wind Chill:   Ceiling: 7000
Heat Index: 19°   Visibility: 10mi
Dew Point: 13°   Wind: 7mph
Humidity: 79%   Direction: 170°S
Pressure: 30.23"   Gusts: NA
Location:  44.83°N, 85.28°W
Report Text: KACB 281438Z AUTO 17006KT 10SM SCT028 BKN070 BKN090 M07/M10 A3023 RMK AO2 T10751105
Loading
Personal Weather Stations






























Interactive Weather Map New forecast layout! Learn more

10-Day Weather Forecast

Advertisements
Track Severe Weather on mobile